Main page
METAR-TAF:

METAR-TAF

Airports :

Altenburg, Germany

Leipzig–Altenburg Airport

latitude: 50-58N, longitude: 012-30E, elevation: 195 m

Current weather observation

The report was made 5 hours and 24 minutes ago, at 17:20 UTC
Wind 11 kt from the West
Temperature 11°C
Humidity 62%
Pressure 1016 hPa
Visibility 10 km or more
no clouds below 1500 m and no cumulonimbus

METAR: EDAC 261720Z 27011KT CAVOK 11/04 Q1016

Time: 00:44 (22:44 UTC)

Forecast

The report was made 5 hours and 44 minutes ago, at 17:00 UTC
Forecast valid from 26 at 18 UTC to 27 at 03 UTC
Wind 7 kt from the West
Visibility 10 km or more
Few clouds at a height of 4000 ft
Becoming
from 26 at 18 UTC to 26 at 21 UTC
Wind 4 kt from the South/Southwest

TAF: EDAC 261700Z 2618/2703 26007KT 9999 FEW040 BECMG 2618/2621 20004KT

Weather observations and forecasts of more than 4000 airports (METAR and TAF reports).

The available stations are represented by yellow and red dots on the map.

Hover mouse over dot to see the name of the station.

Then click to see weather observations and forecasts.

To change the map : click on the green buttons with a black cross to zoom in, on the green button with a dash to zoom out, or on the green arrows for adjacent maps.


METAR-TAF: